Time;durP1;ratioP1;P1;durP2;ratioP2;P2;SDS_P1;SDS_P2;PMS_P1;PMS_P2;Temp;Humidity;BMP_temperature;BMP_pressure;BME280_temperature;BME280_humidity;BME280_pressure;Samples;Min_cycle;Max_cycle;Signal;HPM_P1;HPM_P2
2023/08/01 00:00:16;;;;;;;13.80;7.50;;;16.90;90.60;;;;;;4966172;28;20035;-79
2023/08/01 00:02:42;;;;;;;14.65;5.80;;;16.80;90.60;;;;;;4967004;28;20034;-76
2023/08/01 00:05:08;;;;;;;14.48;6.20;;;16.80;90.80;;;;;;4964217;28;20109;-76
2023/08/01 00:07:34;;;;;;;16.83;6.72;;;16.80;90.80;;;;;;4968596;28;20057;-75
2023/08/01 00:09:59;;;;;;;11.27;5.80;;;16.70;90.60;;;;;;4967678;28;20483;-77
2023/08/01 00:12:25;;;;;;;12.90;6.60;;;16.80;90.70;;;;;;4960731;28;20059;-73
2023/08/01 00:14:51;;;;;;;15.35;6.35;;;16.80;90.70;;;;;;4964724;28;20039;-75
2023/08/01 00:17:17;;;;;;;14.40;6.78;;;16.70;90.70;;;;;;4965475;28;20037;-75
2023/08/01 00:19:43;;;;;;;14.98;7.03;;;16.70;90.70;;;;;;4967874;28;20029;-75
2023/08/01 00:22:08;;;;;;;14.57;7.15;;;16.70;90.80;;;;;;4967049;28;20061;-75
2023/08/01 00:24:35;;;;;;;14.27;7.22;;;16.60;90.80;;;;;;4965432;28;20752;-76
2023/08/01 00:27:01;;;;;;;15.75;7.10;;;16.60;90.90;;;;;;4965343;28;20098;-76
2023/08/01 00:29:27;;;;;;;15.75;7.05;;;16.60;91.10;;;;;;4967456;28;20034;-77
2023/08/01 00:31:52;;;;;;;15.40;7.90;;;16.50;91.20;;;;;;4965916;28;20073;-73
2023/08/01 00:34:18;;;;;;;15.77;8.02;;;16.60;91.20;;;;;;4965979;28;20027;-73
2023/08/01 00:36:43;;;;;;;18.77;8.43;;;16.60;91.10;;;;;;4965391;28;20117;-75
2023/08/01 00:39:09;;;;;;;18.10;9.18;;;16.50;91.10;;;;;;4959541;28;20035;-75
2023/08/01 00:41:35;;;;;;;17.10;9.00;;;16.50;91.30;;;;;;4957605;28;20149;-76
2023/08/01 00:44:00;;;;;;;18.90;8.88;;;16.50;91.10;;;;;;4967993;28;20089;-74
2023/08/01 00:46:26;;;;;;;23.27;9.68;;;16.50;91.30;;;;;;4962617;28;20039;-76
2023/08/01 00:48:53;;;;;;;17.38;9.10;;;16.50;91.10;;;;;;4966319;28;20106;-78
2023/08/01 00:51:19;;;;;;;18.92;9.45;;;16.60;91.10;;;;;;4960565;28;20041;-78
2023/08/01 00:53:46;;;;;;;20.45;10.57;;;16.60;90.90;;;;;;4951873;28;20371;-76
2023/08/01 00:56:12;;;;;;;18.10;10.55;;;16.50;90.90;;;;;;4948142;28;20027;-81
2023/08/01 00:58:37;;;;;;;16.67;10.70;;;16.50;90.90;;;;;;4965067;28;20382;-78
2023/08/01 01:01:03;;;;;;;22.38;10.93;;;16.50;91.00;;;;;;4951039;28;20063;-75
2023/08/01 01:03:30;;;;;;;20.65;12.82;;;16.50;90.90;;;;;;4947711;28;20118;-75
2023/08/01 01:06:16;;;;;;;25.13;13.05;;;16.50;91.00;;;;;;4954112;28;20470;-74
2023/08/01 01:08:42;;;;;;;23.88;12.95;;;16.40;91.10;;;;;;4947960;28;20102;-76
2023/08/01 01:11:08;;;;;;;22.02;12.07;;;16.40;91.20;;;;;;4969882;28;20576;-76
2023/08/01 01:13:33;;;;;;;20.85;11.30;;;16.30;91.40;;;;;;4951135;28;20034;-75
2023/08/01 01:15:59;;;;;;;20.75;10.68;;;16.30;91.40;;;;;;4954790;28;20113;-74
2023/08/01 01:18:25;;;;;;;19.52;9.70;;;16.40;91.40;;;;;;4955649;28;20054;-76
2023/08/01 01:20:51;;;;;;;23.70;10.32;;;16.30;91.30;;;;;;4966540;28;20070;-74
2023/08/01 01:23:17;;;;;;;18.63;10.38;;;16.30;91.30;;;;;;4965437;28;20455;-74
2023/08/01 01:25:45;;;;;;;20.95;10.23;;;16.20;91.30;;;;;;4963738;28;20078;-76
2023/08/01 01:28:12;;;;;;;21.27;10.55;;;16.30;91.50;;;;;;4957018;28;20411;-77
2023/08/01 01:30:38;;;;;;;18.90;9.77;;;16.30;91.30;;;;;;4959200;28;20080;-78
2023/08/01 01:33:04;;;;;;;16.00;8.95;;;16.30;91.30;;;;;;4958623;28;20027;-78
2023/08/01 01:35:33;;;;;;;21.40;9.52;;;16.20;91.30;;;;;;4964718;28;20062;-78
2023/08/01 01:38:03;;;;;;;22.77;9.48;;;16.20;91.20;;;;;;4965007;28;20544;-75
2023/08/01 01:40:29;;;;;;;19.08;9.77;;;16.20;91.20;;;;;;4965928;28;20537;-74
2023/08/01 01:42:55;;;;;;;14.88;8.88;;;16.10;91.40;;;;;;4964460;28;20030;-73
2023/08/01 01:45:21;;;;;;;19.45;9.95;;;16.10;91.50;;;;;;4963200;28;20030;-79
2023/08/01 01:47:46;;;;;;;20.48;9.05;;;16.10;91.40;;;;;;4968264;28;20037;-75
2023/08/01 01:50:12;;;;;;;25.63;9.90;;;16.10;91.30;;;;;;4981439;28;20315;-79
2023/08/01 01:52:38;;;;;;;25.38;9.50;;;16.10;91.30;;;;;;4964620;28;20026;-77
2023/08/01 01:55:04;;;;;;;19.27;9.02;;;16.10;91.30;;;;;;4965517;28;20534;-78
2023/08/01 01:57:29;;;;;;;17.40;9.90;;;16.10;91.50;;;;;;4960998;28;20037;-79
2023/08/01 01:59:55;;;;;;;18.95;9.63;;;16.10;91.40;;;;;;4959448;28;20498;-78
2023/08/01 02:02:21;;;;;;;18.13;8.57;;;16.10;91.40;;;;;;4962246;28;20082;-80
2023/08/01 02:04:47;;;;;;;24.05;10.27;;;16.10;91.40;;;;;;4964965;28;20876;-75
2023/08/01 02:07:14;;;;;;;18.80;8.98;;;16.10;91.30;;;;;;4963510;28;20117;-78
2023/08/01 02:09:40;;;;;;;18.98;8.80;;;16.10;91.40;;;;;;4965831;28;20062;-77
2023/08/01 02:12:08;;;;;;;18.95;9.00;;;16.10;91.40;;;;;;4960210;28;20070;-78
2023/08/01 02:14:33;;;;;;;19.38;9.40;;;16.10;91.40;;;;;;4965491;28;20114;-77
2023/08/01 02:16:59;;;;;;;21.45;10.05;;;16.10;91.40;;;;;;4964050;28;20440;-77
2023/08/01 02:19:25;;;;;;;15.27;9.07;;;16.20;91.50;;;;;;4959718;28;20077;-76
2023/08/01 02:21:50;;;;;;;19.85;9.95;;;16.20;91.40;;;;;;4964508;28;20035;-77
2023/08/01 02:24:16;;;;;;;21.85;10.25;;;16.10;91.40;;;;;;4963971;28;20453;-76
2023/08/01 02:26:42;;;;;;;22.88;9.25;;;16.20;91.00;;;;;;4961979;28;20542;-74
2023/08/01 02:29:07;;;;;;;19.70;9.68;;;16.20;90.90;;;;;;4966198;28;20042;-75
2023/08/01 02:31:33;;;;;;;20.58;10.40;;;16.10;90.90;;;;;;4956651;28;20073;-78
2023/08/01 02:33:58;;;;;;;20.52;9.70;;;16.20;91.00;;;;;;4964425;28;20051;-76
2023/08/01 02:36:24;;;;;;;18.15;9.27;;;16.10;91.00;;;;;;4958754;28;20612;-75
2023/08/01 02:38:50;;;;;;;21.00;10.55;;;16.10;91.00;;;;;;4950594;28;20027;-78
2023/08/01 02:41:15;;;;;;;19.55;9.68;;;16.10;91.00;;;;;;4949408;28;20110;-75
2023/08/01 02:43:41;;;;;;;18.25;10.00;;;16.10;91.00;;;;;;4946961;28;20425;-77
2023/08/01 02:46:07;;;;;;;19.27;9.57;;;16.10;91.10;;;;;;4965119;28;20068;-79
2023/08/01 02:48:32;;;;;;;19.77;9.40;;;16.10;91.10;;;;;;4968760;28;20488;-77
2023/08/01 02:50:58;;;;;;;17.30;10.00;;;16.10;91.20;;;;;;4971763;28;20041;-74
2023/08/01 02:53:24;;;;;;;18.60;8.77;;;16.10;91.30;;;;;;4972092;28;20105;-75
2023/08/01 02:55:50;;;;;;;21.52;10.15;;;16.10;91.30;;;;;;4966377;28;20043;-76
2023/08/01 02:58:15;;;;;;;24.67;9.30;;;16.20;91.20;;;;;;4953713;28;20032;-77
2023/08/01 03:00:41;;;;;;;18.42;10.55;;;16.10;91.10;;;;;;4950920;28;20459;-75
2023/08/01 03:03:07;;;;;;;22.02;10.07;;;16.20;91.20;;;;;;4948823;28;20039;-80
2023/08/01 03:05:35;;;;;;;22.15;10.30;;;16.20;91.30;;;;;;4950956;28;20035;-74
2023/08/01 03:08:00;;;;;;;23.75;10.50;;;16.20;91.20;;;;;;4953601;29;20027;-74
2023/08/01 03:10:26;;;;;;;19.98;9.77;;;16.20;91.20;;;;;;4948710;28;20383;-74
2023/08/01 03:12:52;;;;;;;20.13;10.32;;;16.10;91.10;;;;;;4953157;28;20015;-77
2023/08/01 03:15:18;;;;;;;18.23;9.43;;;16.20;91.10;;;;;;4950763;28;20059;-77
2023/08/01 03:17:43;;;;;;;22.55;11.70;;;16.20;91.00;;;;;;4950360;28;21572;-81
2023/08/01 03:20:10;;;;;;;22.50;10.30;;;16.10;91.00;;;;;;4951269;28;20119;-74
2023/08/01 03:22:39;;;;;;;21.42;10.48;;;16.20;91.20;;;;;;4952712;28;20037;-77
2023/08/01 03:25:07;;;;;;;20.63;11.27;;;16.10;91.30;;;;;;4950893;28;20114;-79
2023/08/01 03:27:33;;;;;;;22.38;10.75;;;16.10;91.20;;;;;;4949260;29;20118;-80
2023/08/01 03:29:59;;;;;;;22.20;10.82;;;16.10;91.20;;;;;;4945008;28;20031;-80
2023/08/01 03:32:25;;;;;;;22.38;10.68;;;16.10;91.10;;;;;;4948992;28;20487;-74
2023/08/01 03:34:50;;;;;;;23.48;11.77;;;16.10;91.20;;;;;;4951153;29;20035;-75
2023/08/01 03:37:16;;;;;;;21.20;11.27;;;16.00;91.20;;;;;;4951505;28;20042;-75
2023/08/01 03:39:42;;;;;;;25.13;10.02;;;16.10;91.30;;;;;;4947066;29;20038;-75
2023/08/01 03:42:08;;;;;;;21.90;10.80;;;16.00;91.30;;;;;;4950067;28;20055;-78
2023/08/01 03:44:34;;;;;;;22.92;11.25;;;16.10;91.40;;;;;;4950217;28;20106;-74
2023/08/01 03:46:59;;;;;;;24.20;10.80;;;16.10;91.50;;;;;;4944661;28;20039;-76
2023/08/01 03:49:25;;;;;;;27.95;10.52;;;16.10;91.40;;;;;;4948880;28;20027;-76
2023/08/01 03:51:51;;;;;;;26.60;10.98;;;16.10;91.40;;;;;;4949109;28;20530;-75
2023/08/01 03:54:17;;;;;;;25.95;10.77;;;16.10;91.40;;;;;;4949761;28;20098;-79
2023/08/01 03:56:44;;;;;;;21.08;10.18;;;16.10;91.40;;;;;;4946837;28;20023;-75
2023/08/01 03:59:14;;;;;;;21.48;10.93;;;16.20;91.40;;;;;;4942779;28;20032;-78
2023/08/01 04:01:40;;;;;;;20.25;10.23;;;16.20;91.20;;;;;;4939521;28;20500;-75
2023/08/01 04:04:06;;;;;;;20.27;9.95;;;16.20;91.20;;;;;;4947799;28;20748;-76
2023/08/01 04:06:32;;;;;;;25.83;9.75;;;16.20;91.10;;;;;;4947225;28;20034;-77
2023/08/01 04:08:59;;;;;;;22.05;10.68;;;16.10;91.10;;;;;;4943365;29;20031;-78
2023/08/01 04:11:26;;;;;;;20.75;9.73;;;16.10;91.10;;;;;;4944395;28;20063;-77
2023/08/01 04:13:52;;;;;;;21.00;9.60;;;16.20;91.10;;;;;;4948810;28;20055;-77
2023/08/01 04:16:17;;;;;;;27.30;10.55;;;16.20;91.00;;;;;;4946975;28;20039;-76
2023/08/01 04:18:43;;;;;;;22.33;9.55;;;16.20;90.90;;;;;;4947720;29;20016;-76
2023/08/01 04:21:09;;;;;;;22.17;9.43;;;16.20;90.80;;;;;;4943005;28;20039;-78
2023/08/01 04:23:34;;;;;;;18.40;9.00;;;16.20;90.90;;;;;;4949472;28;20027;-75
2023/08/01 04:26:00;;;;;;;21.40;9.13;;;16.20;90.90;;;;;;4944601;28;20432;-77
2023/08/01 04:28:26;;;;;;;20.85;9.20;;;16.20;90.60;;;;;;4946613;28;20031;-79
2023/08/01 04:30:52;;;;;;;21.10;8.90;;;16.20;90.80;;;;;;4946859;28;20562;-75
2023/08/01 04:33:18;;;;;;;18.95;9.82;;;16.30;90.60;;;;;;4945144;29;20031;-77
2023/08/01 04:35:44;;;;;;;14.00;8.10;;;16.30;90.30;;;;;;4940840;28;20039;-77
2023/08/01 04:38:10;;;;;;;16.25;8.45;;;16.30;90.30;;;;;;4945990;28;20134;-78
2023/08/01 04:40:36;;;;;;;18.65;8.70;;;16.30;90.20;;;;;;4946515;28;20054;-80
2023/08/01 04:43:02;;;;;;;16.80;7.90;;;16.30;90.30;;;;;;4944799;28;20027;-77
2023/08/01 04:45:28;;;;;;;20.65;8.75;;;16.30;90.10;;;;;;4946580;28;20114;-76
2023/08/01 04:47:54;;;;;;;16.35;8.63;;;16.30;90.30;;;;;;4941971;28;20054;-77
2023/08/01 04:50:19;;;;;;;18.52;8.38;;;16.30;90.10;;;;;;4943726;28;20126;-77
2023/08/01 04:52:45;;;;;;;18.45;8.32;;;16.30;90.00;;;;;;4947138;28;20034;-76
2023/08/01 04:55:11;;;;;;;16.73;8.85;;;16.30;89.90;;;;;;4947769;28;20038;-79
2023/08/01 04:57:37;;;;;;;18.05;8.43;;;16.40;90.00;;;;;;4945317;29;20032;-76
2023/08/01 05:00:03;;;;;;;20.30;9.00;;;16.40;89.90;;;;;;4945006;28;20146;-78
2023/08/01 05:02:29;;;;;;;20.55;8.18;;;16.40;90.00;;;;;;4943873;29;20067;-77
2023/08/01 05:04:55;;;;;;;17.17;8.48;;;16.40;89.90;;;;;;4948320;29;20066;-77
2023/08/01 05:07:21;;;;;;;19.95;8.23;;;16.40;89.90;;;;;;4946379;28;20051;-78
2023/08/01 05:09:46;;;;;;;18.90;7.93;;;16.40;89.80;;;;;;4946788;28;20675;-81
2023/08/01 05:12:12;;;;;;;19.73;9.18;;;16.40;89.90;;;;;;4940649;29;20439;-77
2023/08/01 05:14:38;;;;;;;19.08;8.60;;;16.40;90.00;;;;;;4945013;28;20031;-74
2023/08/01 05:17:04;;;;;;;16.48;8.55;;;16.30;89.90;;;;;;4946152;28;20122;-75
2023/08/01 05:19:29;;;;;;;17.73;9.90;;;16.40;90.10;;;;;;4946381;29;20035;-74
2023/08/01 05:21:55;;;;;;;20.77;8.85;;;16.30;90.10;;;;;;4943462;28;20046;-77
2023/08/01 05:24:21;;;;;;;18.33;8.50;;;16.40;90.00;;;;;;4951601;28;20070;-76
2023/08/01 05:26:47;;;;;;;21.40;8.52;;;16.40;90.00;;;;;;4944620;28;20109;-76
2023/08/01 05:29:13;;;;;;;17.98;8.32;;;16.40;89.80;;;;;;4944144;28;20046;-77
2023/08/01 05:31:38;;;;;;;18.80;8.93;;;16.40;89.80;;;;;;4941121;28;20031;-76
2023/08/01 05:34:04;;;;;;;16.20;8.10;;;16.40;89.60;;;;;;4944421;29;20069;-76
2023/08/01 05:36:30;;;;;;;18.08;8.25;;;16.40;89.60;;;;;;4955553;28;20042;-78
2023/08/01 05:38:56;;;;;;;17.95;7.90;;;16.50;89.50;;;;;;4965958;28;21380;-74
2023/08/01 05:41:22;;;;;;;15.65;8.00;;;16.50;89.50;;;;;;4963723;28;20072;-77
2023/08/01 05:43:49;;;;;;;18.17;7.63;;;16.60;89.50;;;;;;4956460;28;20680;-75
2023/08/01 05:46:15;;;;;;;19.40;9.02;;;16.60;89.30;;;;;;4962539;28;20057;-76
2023/08/01 05:48:40;;;;;;;20.60;8.05;;;16.60;89.10;;;;;;4966426;28;20476;-75
2023/08/01 05:51:06;;;;;;;15.48;7.32;;;16.70;88.90;;;;;;4964419;28;20133;-78
2023/08/01 05:53:32;;;;;;;15.55;7.13;;;16.70;88.90;;;;;;4965783;28;20907;-76
2023/08/01 05:55:58;;;;;;;21.38;7.68;;;16.80;88.70;;;;;;4959493;28;20039;-75
2023/08/01 05:58:24;;;;;;;17.73;7.60;;;16.90;88.30;;;;;;4962577;28;20031;-75
2023/08/01 06:00:50;;;;;;;17.27;7.80;;;17.30;87.70;;;;;;4964600;28;20042;-75
2023/08/01 06:03:16;;;;;;;16.20;7.65;;;17.50;86.00;;;;;;4961113;28;20039;-76
2023/08/01 06:05:42;;;;;;;14.77;6.90;;;17.60;85.90;;;;;;4958702;28;20054;-76
2023/08/01 06:08:08;;;;;;;17.13;7.63;;;17.80;85.30;;;;;;4960978;28;20070;-76
2023/08/01 06:10:34;;;;;;;17.98;7.15;;;17.60;85.50;;;;;;4962186;28;20031;-76
2023/08/01 06:13:00;;;;;;;15.32;7.53;;;17.70;85.70;;;;;;4965661;28;20034;-79
2023/08/01 06:15:26;;;;;;;18.02;7.78;;;17.80;85.70;;;;;;4963347;28;20100;-79
2023/08/01 06:17:51;;;;;;;17.15;7.80;;;17.90;84.80;;;;;;4990265;28;20337;-79
2023/08/01 06:20:17;;;;;;;18.05;7.15;;;18.10;84.80;;;;;;4963630;28;20314;-77
2023/08/01 06:22:43;;;;;;;15.38;7.18;;;18.10;84.20;;;;;;4958854;28;20114;-79
2023/08/01 06:25:09;;;;;;;17.58;6.93;;;18.10;84.20;;;;;;4962141;28;20039;-79
2023/08/01 06:27:34;;;;;;;18.05;7.68;;;18.10;84.20;;;;;;4963040;28;20031;-81
2023/08/01 06:30:00;;;;;;;16.40;7.32;;;18.10;83.80;;;;;;4957466;28;20126;-81
2023/08/01 06:32:26;;;;;;;16.75;7.93;;;18.10;84.10;;;;;;4964004;28;20066;-80
2023/08/01 06:34:52;;;;;;;18.00;7.13;;;18.20;84.10;;;;;;4965647;28;20085;-80
2023/08/01 06:37:18;;;;;;;15.73;7.00;;;18.30;84.10;;;;;;4961243;28;20113;-79
2023/08/01 06:39:43;;;;;;;13.82;7.10;;;18.50;83.30;;;;;;4954461;28;20063;-79
2023/08/01 06:42:09;;;;;;;20.13;7.93;;;18.30;82.90;;;;;;4963941;28;21508;-80
2023/08/01 06:44:35;;;;;;;15.82;7.47;;;18.10;83.40;;;;;;4963821;28;20022;-80
2023/08/01 06:47:00;;;;;;;17.23;7.22;;;18.10;83.80;;;;;;4968702;28;20558;-80
2023/08/01 06:49:26;;;;;;;20.15;7.15;;;17.90;84.00;;;;;;4964128;28;20030;-80
2023/08/01 06:51:52;;;;;;;17.05;7.22;;;17.70;84.70;;;;;;4968568;28;20050;-79
2023/08/01 06:54:17;;;;;;;15.65;7.40;;;17.60;85.10;;;;;;4970859;28;20026;-81
2023/08/01 06:56:47;;;;;;;18.90;8.15;;;17.60;85.60;;;;;;4964527;28;20527;-81
2023/08/01 06:59:14;;;;;;;19.88;8.30;;;17.60;86.00;;;;;;4959218;28;20476;-79
2023/08/01 07:01:43;;;;;;;17.15;7.68;;;17.60;85.70;;;;;;4956368;28;20391;-80
2023/08/01 07:04:09;;;;;;;17.85;8.15;;;17.40;85.80;;;;;;4951945;28;20039;-80
2023/08/01 07:06:35;;;;;;;16.20;8.00;;;17.50;85.70;;;;;;4957894;28;20046;-81
2023/08/01 07:09:00;;;;;;;16.65;7.95;;;17.60;85.30;;;;;;4949644;28;20039;-80
2023/08/01 07:11:26;;;;;;;16.10;7.82;;;17.70;85.20;;;;;;4953017;28;20067;-80
2023/08/01 07:13:52;;;;;;;16.35;7.93;;;17.70;84.60;;;;;;4948609;28;20086;-78
2023/08/01 07:16:17;;;;;;;13.93;7.30;;;17.80;84.80;;;;;;4972646;28;20472;-77
2023/08/01 07:18:43;;;;;;;17.70;7.93;;;18.00;83.50;;;;;;4944015;28;20027;-79
2023/08/01 07:21:09;;;;;;;15.98;7.47;;;18.10;82.90;;;;;;4947434;28;20077;-78
2023/08/01 07:23:35;;;;;;;17.23;7.85;;;18.20;83.10;;;;;;4959830;28;20149;-79
2023/08/01 07:26:02;;;;;;;17.95;9.13;;;18.40;81.90;;;;;;4943484;28;20066;-79
2023/08/01 07:28:28;;;;;;;18.52;8.38;;;18.40;81.30;;;;;;4945051;28;20024;-77
2023/08/01 07:31:01;;;;;;;13.57;7.72;;;18.60;80.60;;;;;;4945124;28;20042;-77
2023/08/01 07:33:27;;;;;;;15.70;8.30;;;18.70;80.30;;;;;;4941926;28;20047;-77
2023/08/01 07:35:53;;;;;;;15.02;8.43;;;19.00;79.90;;;;;;4947910;28;20035;-76
2023/08/01 07:38:18;;;;;;;20.42;9.02;;;18.90;79.20;;;;;;4948719;28;20039;-79
2023/08/01 07:40:44;;;;;;;16.10;8.30;;;18.90;79.70;;;;;;4957366;28;20094;-79
2023/08/01 07:43:12;;;;;;;17.30;8.00;;;19.00;79.20;;;;;;4964316;28;20716;-79
2023/08/01 07:45:38;;;;;;;14.65;7.05;;;19.10;78.80;;;;;;4966613;28;20031;-79
2023/08/01 07:48:04;;;;;;;15.50;7.47;;;19.30;78.60;;;;;;4965724;28;20034;-80
2023/08/01 07:50:32;;;;;;;12.43;7.00;;;19.20;77.10;;;;;;4963458;28;20155;-80
2023/08/01 07:52:58;;;;;;;13.68;7.00;;;19.20;76.90;;;;;;4960391;28;20070;-78
2023/08/01 07:55:24;;;;;;;11.10;5.97;;;19.10;78.50;;;;;;4961301;28;20966;-78
2023/08/01 07:57:50;;;;;;;13.35;7.38;;;19.40;77.10;;;;;;4963307;28;20035;-78
2023/08/01 08:00:16;;;;;;;14.38;8.80;;;19.00;77.30;;;;;;4962854;28;20023;-80
2023/08/01 08:02:43;;;;;;;14.40;7.93;;;18.70;78.00;;;;;;4965971;28;20081;-80
2023/08/01 08:05:09;;;;;;;15.32;9.52;;;18.80;78.00;;;;;;4963056;28;20065;-78
2023/08/01 08:07:37;;;;;;;17.95;8.43;;;18.90;77.80;;;;;;4967911;28;20038;-79
2023/08/01 08:10:06;;;;;;;14.90;7.20;;;19.00;77.50;;;;;;4967318;28;20126;-77
2023/08/01 08:12:32;;;;;;;16.55;8.85;;;19.00;77.30;;;;;;4950353;28;20399;-79
2023/08/01 08:14:58;;;;;;;14.00;8.43;;;19.30;77.00;;;;;;4950853;28;20023;-79
2023/08/01 08:17:23;;;;;;;13.05;7.85;;;19.50;76.30;;;;;;4948935;28;20067;-76
2023/08/01 08:19:49;;;;;;;15.35;8.02;;;19.30;76.40;;;;;;4950017;28;20019;-80
2023/08/01 08:22:15;;;;;;;14.98;8.43;;;19.70;76.20;;;;;;4947002;28;20076;-76
2023/08/01 08:24:40;;;;;;;17.02;7.93;;;19.50;75.40;;;;;;4960166;28;20575;-80
2023/08/01 08:27:06;;;;;;;12.85;7.15;;;19.60;75.70;;;;;;4967230;28;20129;-79
2023/08/01 08:29:32;;;;;;;15.80;8.35;;;19.80;75.20;;;;;;4969287;28;20031;-78
2023/08/01 08:31:59;;;;;;;15.10;7.80;;;20.00;73.20;;;;;;4963483;28;20058;-78
2023/08/01 08:34:24;;;;;;;13.35;7.82;;;20.10;72.80;;;;;;4967589;28;20030;-79
2023/08/01 08:36:50;;;;;;;19.63;8.18;;;20.10;73.40;;;;;;4967604;28;20030;-78
2023/08/01 08:39:18;;;;;;;13.75;6.88;;;20.30;72.10;;;;;;4968055;28;20698;-77
2023/08/01 08:41:48;;;;;;;13.05;6.80;;;20.10;73.20;;;;;;4964288;28;20137;-79
2023/08/01 08:44:20;;;;;;;13.82;6.50;;;20.00;73.40;;;;;;4967227;28;20049;-78
2023/08/01 08:46:50;;;;;;;14.82;6.35;;;20.10;72.60;;;;;;4964214;28;20027;-77
2023/08/01 08:49:16;;;;;;;13.68;6.47;;;20.40;73.20;;;;;;4964844;28;20037;-76
2023/08/01 08:51:43;;;;;;;11.90;6.45;;;20.60;71.50;;;;;;4964950;28;20043;-77
2023/08/01 08:54:10;;;;;;;11.00;5.22;;;20.60;70.90;;;;;;4965211;28;20023;-77
2023/08/01 08:56:36;;;;;;;12.23;5.78;;;20.70;70.90;;;;;;4957001;28;20078;-76
2023/08/01 08:59:01;;;;;;;12.48;5.40;;;20.90;69.80;;;;;;4965166;28;20062;-80
2023/08/01 09:01:27;;;;;;;14.95;6.20;;;21.10;70.20;;;;;;4965717;28;20162;-77
2023/08/01 09:03:55;;;;;;;13.52;4.45;;;21.00;68.70;;;;;;4995341;28;20035;-77
2023/08/01 09:06:25;;;;;;;9.82;4.35;;;20.80;68.50;;;;;;4964221;28;20027;-78
2023/08/01 09:08:55;;;;;;;10.05;4.28;;;20.80;68.40;;;;;;4965791;28;20023;-76
2023/08/01 09:11:21;;;;;;;11.73;4.22;;;21.20;68.50;;;;;;4955125;28;20079;-77
2023/08/01 09:13:48;;;;;;;11.45;3.83;;;21.10;67.90;;;;;;4947193;28;20091;-79
2023/08/01 09:16:15;;;;;;;11.70;4.15;;;21.10;66.80;;;;;;4944702;28;20032;-76
2023/08/01 09:18:51;;;;;;;10.98;4.43;;;20.70;68.80;;;;;;4937697;29;20034;-76
2023/08/01 09:21:23;;;;;;;10.48;4.82;;;20.50;68.00;;;;;;4946506;28;20453;-77
2023/08/01 09:23:49;;;;;;;11.23;3.75;;;20.30;69.30;;;;;;4945392;29;20221;-80
2023/08/01 09:26:15;;;;;;;10.30;4.22;;;20.60;69.60;;;;;;4942301;28;20110;-79
2023/08/01 09:28:41;;;;;;;12.25;3.95;;;20.70;68.20;;;;;;4939697;29;20035;-78
2023/08/01 09:31:07;;;;;;;10.43;3.50;;;20.90;68.60;;;;;;4945903;28;20389;-79
2023/08/01 09:33:42;;;;;;;11.25;3.92;;;21.10;67.60;;;;;;4941186;28;20131;-79
2023/08/01 09:36:08;;;;;;;8.57;3.28;;;21.20;67.70;;;;;;4940052;28;20141;-79
2023/08/01 09:38:36;;;;;;;10.55;3.55;;;21.20;67.30;;;;;;4941188;28;20598;-79
2023/08/01 09:41:06;;;;;;;10.90;3.72;;;21.20;67.70;;;;;;4944211;28;20778;-79
2023/08/01 09:43:36;;;;;;;11.68;3.90;;;21.50;67.60;;;;;;4941972;29;20042;-79
2023/08/01 09:46:02;;;;;;;8.40;3.00;;;22.10;64.60;;;;;;4944190;28;20043;-79
2023/08/01 09:48:29;;;;;;;9.57;3.22;;;22.20;63.90;;;;;;4944376;28;20535;-78
2023/08/01 09:51:12;;;;;;;7.68;2.88;;;22.30;65.30;;;;;;4948057;28;20138;-79
2023/08/01 09:53:52;;;;;;;8.98;3.50;;;22.10;64.10;;;;;;4944871;28;20042;-78
2023/08/01 09:56:23;;;;;;;9.32;3.53;;;21.80;64.10;;;;;;4942064;28;20435;-77
2023/08/01 09:58:50;;;;;;;11.35;3.22;;;21.60;64.50;;;;;;4939595;28;20589;-80
2023/08/01 10:01:18;;;;;;;8.82;3.03;;;21.10;67.40;;;;;;4940072;28;20039;-79
2023/08/01 10:03:49;;;;;;;9.57;3.25;;;20.80;68.40;;;;;;4939450;29;20581;-78
2023/08/01 10:06:21;;;;;;;11.18;3.35;;;20.60;67.90;;;;;;4946445;28;20041;-77
2023/08/01 10:08:48;;;;;;;9.05;3.67;;;20.10;68.70;;;;;;4943568;28;20054;-79
2023/08/01 10:11:17;;;;;;;8.00;2.90;;;20.10;69.30;;;;;;4943860;28;20043;-78
2023/08/01 10:13:43;;;;;;;11.88;3.22;;;20.40;69.50;;;;;;4941252;28;20139;-79
2023/08/01 10:16:10;;;;;;;10.30;3.03;;;20.60;69.60;;;;;;4942789;28;20062;-79
2023/08/01 10:18:37;;;;;;;10.98;3.00;;;21.10;68.40;;;;;;4945026;28;20551;-79
2023/08/01 10:21:05;;;;;;;8.93;2.72;;;21.20;66.60;;;;;;4944341;28;20134;-79
2023/08/01 10:23:33;;;;;;;7.60;2.55;;;21.40;64.90;;;;;;4942065;29;20085;-80
2023/08/01 10:26:00;;;;;;;8.27;2.47;;;21.50;63.10;;;;;;4948302;28;20039;-82
2023/08/01 10:28:33;;;;;;;11.52;3.67;;;21.60;63.80;;;;;;4977402;28;20035;-79
2023/08/01 10:31:14;;;;;;;10.45;2.80;;;21.30;64.20;;;;;;4938432;28;20662;-80
2023/08/01 10:33:42;;;;;;;11.60;3.10;;;21.30;65.20;;;;;;4943513;29;20023;-79
2023/08/01 10:36:14;;;;;;;8.63;2.70;;;21.30;65.60;;;;;;4944278;28;20035;-80
2023/08/01 10:38:54;;;;;;;9.90;2.85;;;21.60;65.20;;;;;;4946452;29;20030;-80
2023/08/01 10:41:28;;;;;;;8.98;2.55;;;22.10;64.30;;;;;;4942528;28;20059;-79
2023/08/01 10:44:16;;;;;;;8.82;2.78;;;22.10;63.10;;;;;;4941234;28;20064;-79
2023/08/01 10:47:01;;;;;;;9.20;3.00;;;21.60;64.70;;;;;;4943404;28;20036;-80
2023/08/01 10:49:38;;;;;;;7.90;2.50;;;21.30;64.40;;;;;;4938515;29;20055;-79
2023/08/01 10:52:17;;;;;;;10.60;2.97;;;21.10;65.30;;;;;;4942125;28;20050;-77
2023/08/01 10:54:43;;;;;;;9.93;2.53;;;20.80;65.00;;;;;;4942089;28;20058;-79
2023/08/01 10:57:18;;;;;;;9.48;2.75;;;21.20;64.90;;;;;;4942135;28;20055;-78
2023/08/01 10:59:44;;;;;;;9.40;2.33;;;21.70;63.30;;;;;;4942099;29;20047;-78
2023/08/01 11:02:10;;;;;;;9.77;2.50;;;22.10;61.60;;;;;;4941789;28;20047;-79
2023/08/01 11:04:36;;;;;;;7.40;2.13;;;22.00;61.20;;;;;;4941624;28;20025;-78
2023/08/01 11:07:04;;;;;;;8.18;2.30;;;21.40;61.30;;;;;;4943858;28;20439;-80
2023/08/01 11:09:29;;;;;;;6.90;2.53;;;21.00;63.00;;;;;;4945803;29;20570;-77
2023/08/01 11:11:57;;;;;;;8.52;2.22;;;20.70;64.50;;;;;;4943469;28;20047;-77
2023/08/01 11:14:28;;;;;;;7.70;2.38;;;20.50;65.70;;;;;;4948143;28;20117;-75
2023/08/01 11:16:57;;;;;;;6.28;2.50;;;20.30;67.30;;;;;;4946457;28;20032;-78
2023/08/01 11:19:28;;;;;;;7.15;2.70;;;20.30;68.50;;;;;;4947468;28;20027;-75
2023/08/01 11:21:56;;;;;;;7.88;2.60;;;20.40;68.00;;;;;;4960876;28;20082;-78
2023/08/01 11:24:23;;;;;;;6.45;2.17;;;20.30;67.50;;;;;;4946289;29;20110;-78
2023/08/01 11:26:50;;;;;;;7.68;2.55;;;20.20;68.60;;;;;;4945894;28;20094;-77
2023/08/01 11:29:17;;;;;;;7.82;2.22;;;20.10;69.60;;;;;;4974924;28;20405;-77
2023/08/01 11:31:59;;;;;;;10.13;2.95;;;20.00;71.00;;;;;;4945706;28;20035;-78
2023/08/01 11:34:25;;;;;;;6.25;2.45;;;19.90;71.40;;;;;;4948123;28;20074;-78
2023/08/01 11:36:51;;;;;;;9.43;2.60;;;20.00;72.40;;;;;;4957542;28;20039;-79
2023/08/01 11:39:17;;;;;;;7.38;2.67;;;20.10;72.10;;;;;;4965867;28;20663;-78
2023/08/01 11:41:44;;;;;;;8.93;2.75;;;20.30;71.70;;;;;;4961202;28;20055;-79
2023/08/01 11:44:11;;;;;;;11.15;2.80;;;20.60;70.30;;;;;;4966651;28;20065;-78
2023/08/01 11:46:38;;;;;;;8.88;2.83;;;20.60;70.30;;;;;;4950927;28;20070;-80
2023/08/01 11:49:08;;;;;;;8.85;2.88;;;20.60;69.80;;;;;;4947391;28;20027;-79
2023/08/01 11:51:44;;;;;;;11.50;3.00;;;20.60;69.80;;;;;;4958433;28;20062;-80
2023/08/01 11:54:11;;;;;;;10.88;3.22;;;20.60;69.60;;;;;;4967072;28;20030;-79
2023/08/01 11:56:38;;;;;;;10.10;3.40;;;20.80;69.60;;;;;;4964208;28;20035;-79
2023/08/01 11:59:17;;;;;;;8.65;3.40;;;21.20;68.60;;;;;;4962544;28;20034;-79
2023/08/01 12:01:45;;;;;;;11.05;3.13;;;21.90;67.60;;;;;;4964026;28;20046;-79
2023/08/01 12:04:11;;;;;;;9.75;2.85;;;22.50;65.60;;;;;;4966981;28;20039;-82
2023/08/01 12:06:38;;;;;;;10.73;3.20;;;22.60;64.10;;;;;;4964390;28;20046;-78
2023/08/01 12:09:12;;;;;;;11.75;3.53;;;22.60;62.40;;;;;;4957719;28;20023;-78
2023/08/01 12:11:39;;;;;;;10.25;2.72;;;22.50;63.60;;;;;;4956401;28;20050;-79
2023/08/01 12:14:09;;;;;;;8.55;2.95;;;22.60;61.10;;;;;;4954282;28;20015;-81
2023/08/01 12:16:36;;;;;;;7.63;2.55;;;22.50;60.80;;;;;;4957575;28;20073;-78
2023/08/01 12:19:02;;;;;;;9.63;2.83;;;22.30;61.40;;;;;;4967862;28;20023;-79
2023/08/01 12:21:28;;;;;;;7.50;2.40;;;22.40;60.10;;;;;;4962546;28;20038;-79
2023/08/01 12:23:54;;;;;;;8.00;3.25;;;22.50;58.00;;;;;;4967672;28;20027;-78
2023/08/01 12:26:20;;;;;;;8.48;2.53;;;22.30;58.30;;;;;;4968389;28;20092;-79
2023/08/01 12:28:47;;;;;;;7.78;2.70;;;22.20;59.30;;;;;;4966843;28;20027;-78
2023/08/01 12:31:17;;;;;;;8.57;2.63;;;22.10;59.70;;;;;;4967606;28;20046;-78
2023/08/01 12:33:43;;;;;;;10.00;2.53;;;21.90;60.20;;;;;;4963269;28;20117;-79
2023/08/01 12:36:08;;;;;;;11.75;2.90;;;22.10;58.70;;;;;;4967235;28;20042;-80